WMT8PZ LRCL-LIRN
Flight info
| Callsign | WMT8PZ |
|---|---|
| Flight time | 1h 25m |
| Altitude | 32000 |
| Route | ELROM DCT DIRER DCT AIOSA DCT TOPNO L995 EKTOL |
| Aircraft | A320/M-SDE3FGHIRWY/LB1 |
Departure
| Time | 2026-04-24 09:29 |
|---|---|
| Airport | Avram Iancu Cluj International Airport (LRCL) |
Arrival
| Time | 2026-04-24 10:54 |
|---|---|
| Airport | Naples International Airport (LIRN) |
| Time | Latitude | Longitude | Altitude | Speed | Heading |
|---|---|---|---|---|---|
| 2026-04-24 09:00 | 46.78497 | 23.69270 | 1043 ft | 0 kts | 252° |
| 2026-04-24 09:22 | 46.78501 | 23.69289 | 1043 ft | 4 kts | 256° |
| 2026-04-24 09:23 | 46.78505 | 23.69328 | 1043 ft | 4 kts | 276° |
| 2026-04-24 09:23 | 46.78497 | 23.69360 | 1043 ft | 4 kts | 329° |
| 2026-04-24 09:23 | 46.78491 | 23.69364 | 1043 ft | 0 kts | 342° |
| 2026-04-24 09:25 | 46.78502 | 23.69359 | 1043 ft | 3 kts | 342° |
| 2026-04-24 09:25 | 46.78532 | 23.69345 | 1043 ft | 6 kts | 342° |
| 2026-04-24 09:25 | 46.78578 | 23.69323 | 1043 ft | 6 kts | 342° |
| 2026-04-24 09:26 | 46.78629 | 23.69299 | 1043 ft | 9 kts | 341° |
| 2026-04-24 09:26 | 46.78693 | 23.69267 | 1043 ft | 11 kts | 342° |
| 2026-04-24 09:26 | 46.78769 | 23.69231 | 1043 ft | 12 kts | 342° |
| 2026-04-24 09:26 | 46.78847 | 23.69194 | 1043 ft | 11 kts | 341° |
| 2026-04-24 09:27 | 46.78920 | 23.69202 | 1043 ft | 12 kts | 45° |
| 2026-04-24 09:27 | 46.78952 | 23.69327 | 1043 ft | 14 kts | 72° |
| 2026-04-24 09:27 | 46.78986 | 23.69471 | 1043 ft | 13 kts | 72° |
| 2026-04-24 09:27 | 46.78996 | 23.69583 | 1043 ft | 9 kts | 76° |
| 2026-04-24 09:28 | 46.79012 | 23.69606 | 1043 ft | 2 kts | 302° |
| 2026-04-24 09:28 | 46.79008 | 23.69578 | 1043 ft | 4 kts | 253° |
| 2026-04-24 09:28 | 46.78995 | 23.69514 | 1043 ft | 18 kts | 251° |
| 2026-04-24 09:28 | 46.78873 | 23.68969 | 1043 ft | 91 kts | 251° |
| 2026-04-24 09:29 | 46.78716 | 23.68269 | 1043 ft | 126 kts | 252° |
| 2026-04-24 09:29 | 46.78394 | 23.66937 | 1402 ft | 139 kts | 257° |
| 2026-04-24 09:29 | 46.78084 | 23.65574 | 1946 ft | 145 kts | 259° |
| 2026-04-24 09:29 | 46.77764 | 23.64145 | 2529 ft | 149 kts | 257° |
| 2026-04-24 09:30 | 46.77435 | 23.62671 | 3055 ft | 160 kts | 258° |
| 2026-04-24 09:30 | 46.76991 | 23.60404 | 3428 ft | 187 kts | 267° |
| 2026-04-24 09:30 | 46.76900 | 23.59117 | 3609 ft | 202 kts | 270° |
| 2026-04-24 09:30 | 46.76800 | 23.56951 | 3965 ft | 226 kts | 272° |
| 2026-04-24 09:31 | 46.76704 | 23.54543 | 4478 ft | 248 kts | 270° |
| 2026-04-24 09:31 | 46.76595 | 23.51989 | 5275 ft | 255 kts | 271° |
| 2026-04-24 09:31 | 46.76477 | 23.49396 | 6202 ft | 257 kts | 271° |
| 2026-04-24 09:31 | 46.76353 | 23.46780 | 7112 ft | 260 kts | 271° |
| 2026-04-24 09:32 | 46.76228 | 23.44123 | 7951 ft | 266 kts | 270° |
| 2026-04-24 09:32 | 46.76101 | 23.41444 | 8790 ft | 271 kts | 270° |
| 2026-04-24 09:32 | 46.75968 | 23.38675 | 9593 ft | 277 kts | 270° |
| 2026-04-24 09:32 | 46.75829 | 23.35840 | 10282 ft | 287 kts | 270° |
| 2026-04-24 09:33 | 46.75688 | 23.32822 | 10519 ft | 309 kts | 270° |
| 2026-04-24 09:33 | 46.75537 | 23.29624 | 11018 ft | 321 kts | 270° |
| 2026-04-24 09:33 | 46.75376 | 23.26348 | 11709 ft | 326 kts | 270° |
| 2026-04-24 09:33 | 46.75205 | 23.23029 | 12443 ft | 330 kts | 270° |
| 2026-04-24 09:34 | 46.75031 | 23.19672 | 13180 ft | 334 kts | 270° |
| 2026-04-24 09:34 | 46.74856 | 23.16272 | 13894 ft | 338 kts | 271° |
| 2026-04-24 09:34 | 46.74682 | 23.12826 | 14523 ft | 342 kts | 271° |
| 2026-04-24 09:34 | 46.74474 | 23.09349 | 15122 ft | 349 kts | 266° |
| 2026-04-24 09:35 | 46.73810 | 23.05886 | 15701 ft | 361 kts | 252° |
| 2026-04-24 09:35 | 46.72542 | 23.02655 | 16283 ft | 373 kts | 237° |
| 2026-04-24 09:35 | 46.70715 | 22.99908 | 16853 ft | 384 kts | 221° |
| 2026-04-24 09:35 | 46.68482 | 22.97690 | 17438 ft | 391 kts | 216° |
| 2026-04-24 09:36 | 46.66193 | 22.95512 | 18036 ft | 395 kts | 216° |
| 2026-04-24 09:36 | 46.63885 | 22.93312 | 18589 ft | 399 kts | 216° |
| 2026-04-24 09:36 | 46.61543 | 22.91077 | 19111 ft | 403 kts | 216° |
| 2026-04-24 09:36 | 46.59195 | 22.88835 | 19620 ft | 407 kts | 216° |
| 2026-04-24 09:37 | 46.56842 | 22.86592 | 20135 ft | 411 kts | 216° |
| 2026-04-24 09:37 | 46.54405 | 22.84268 | 20660 ft | 415 kts | 216° |
| 2026-04-24 09:37 | 46.51983 | 22.81952 | 21148 ft | 419 kts | 216° |
| 2026-04-24 09:37 | 46.49562 | 22.79639 | 21603 ft | 423 kts | 216° |
| 2026-04-24 09:38 | 46.47085 | 22.77280 | 22054 ft | 427 kts | 216° |
| 2026-04-24 09:38 | 46.44594 | 22.74913 | 22515 ft | 430 kts | 216° |
| 2026-04-24 09:38 | 46.42075 | 22.72526 | 23001 ft | 434 kts | 216° |
| 2026-04-24 09:38 | 46.39540 | 22.70129 | 23466 ft | 437 kts | 215° |
| 2026-04-24 09:39 | 46.36972 | 22.67706 | 23853 ft | 442 kts | 216° |
| 2026-04-24 09:39 | 46.34386 | 22.65268 | 24242 ft | 444 kts | 215° |
| 2026-04-24 09:39 | 46.31790 | 22.62822 | 24686 ft | 447 kts | 215° |
| 2026-04-24 09:39 | 46.29179 | 22.60364 | 25087 ft | 449 kts | 215° |
| 2026-04-24 09:40 | 46.26551 | 22.57887 | 25472 ft | 452 kts | 215° |
| 2026-04-24 09:40 | 46.23905 | 22.55395 | 25856 ft | 455 kts | 215° |
| 2026-04-24 09:40 | 46.21239 | 22.52889 | 26232 ft | 458 kts | 215° |
| 2026-04-24 09:40 | 46.18561 | 22.50373 | 26619 ft | 460 kts | 215° |
| 2026-04-24 09:41 | 46.15869 | 22.47851 | 27008 ft | 463 kts | 214° |
| 2026-04-24 09:41 | 46.13160 | 22.45318 | 27398 ft | 465 kts | 214° |
| 2026-04-24 09:41 | 46.10431 | 22.42769 | 27765 ft | 468 kts | 214° |
| 2026-04-24 09:41 | 46.07693 | 22.40214 | 28130 ft | 471 kts | 214° |
| 2026-04-24 09:42 | 46.04928 | 22.37635 | 28498 ft | 474 kts | 214° |
| 2026-04-24 09:42 | 46.02152 | 22.35049 | 28862 ft | 477 kts | 214° |
| 2026-04-24 09:42 | 45.99353 | 22.32450 | 29216 ft | 480 kts | 214° |
| 2026-04-24 09:42 | 45.96542 | 22.29842 | 29609 ft | 482 kts | 214° |
| 2026-04-24 09:43 | 45.93751 | 22.27254 | 29969 ft | 485 kts | 214° |
| 2026-04-24 09:43 | 45.90904 | 22.24613 | 30303 ft | 488 kts | 214° |
| 2026-04-24 09:43 | 45.88019 | 22.21940 | 30618 ft | 490 kts | 214° |
| 2026-04-24 09:43 | 45.85142 | 22.19279 | 30910 ft | 493 kts | 214° |
| 2026-04-24 09:44 | 45.82286 | 22.16641 | 31256 ft | 494 kts | 214° |
| 2026-04-24 09:44 | 45.79391 | 22.13968 | 31720 ft | 493 kts | 213° |
| 2026-04-24 09:44 | 45.76510 | 22.11311 | 31977 ft | 493 kts | 213° |
| 2026-04-24 09:44 | 45.73647 | 22.08673 | 32030 ft | 483 kts | 213° |
| 2026-04-24 09:45 | 45.68073 | 22.03554 | 32032 ft | 472 kts | 213° |
| 2026-04-24 09:45 | 45.62554 | 21.98501 | 32029 ft | 470 kts | 213° |
| 2026-04-24 09:46 | 45.57043 | 21.93471 | 32032 ft | 470 kts | 213° |
| 2026-04-24 09:46 | 45.51531 | 21.88443 | 32032 ft | 470 kts | 213° |
| 2026-04-24 09:47 | 45.46022 | 21.83423 | 32034 ft | 470 kts | 212° |
| 2026-04-24 09:47 | 45.40509 | 21.78417 | 32040 ft | 470 kts | 212° |
| 2026-04-24 09:48 | 45.34993 | 21.73432 | 32043 ft | 470 kts | 212° |
| 2026-04-24 09:48 | 45.29516 | 21.68482 | 32043 ft | 470 kts | 212° |
| 2026-04-24 09:49 | 45.24002 | 21.63510 | 32040 ft | 469 kts | 212° |
| 2026-04-24 09:49 | 45.18478 | 21.58544 | 32044 ft | 469 kts | 212° |
| 2026-04-24 09:50 | 45.12962 | 21.53585 | 32057 ft | 470 kts | 212° |
| 2026-04-24 09:50 | 45.07438 | 21.48639 | 32065 ft | 469 kts | 212° |
| 2026-04-24 09:51 | 45.01904 | 21.43708 | 32059 ft | 469 kts | 212° |
| 2026-04-24 09:51 | 44.96799 | 21.38016 | 32054 ft | 468 kts | 227° |
| 2026-04-24 09:52 | 44.92314 | 21.31420 | 32050 ft | 468 kts | 227° |
| 2026-04-24 09:52 | 44.87788 | 21.24794 | 32049 ft | 468 kts | 227° |
| 2026-04-24 09:53 | 44.83261 | 21.18204 | 32050 ft | 468 kts | 227° |
| 2026-04-24 09:53 | 44.78729 | 21.11616 | 32053 ft | 468 kts | 227° |
| 2026-04-24 09:54 | 44.74189 | 21.05037 | 32062 ft | 468 kts | 227° |
| 2026-04-24 09:54 | 44.69648 | 20.98463 | 32063 ft | 468 kts | 227° |
| 2026-04-24 09:55 | 44.65131 | 20.91936 | 32063 ft | 468 kts | 227° |
| 2026-04-24 09:55 | 44.60585 | 20.85381 | 32065 ft | 468 kts | 226° |
| 2026-04-24 09:56 | 44.56034 | 20.78847 | 32071 ft | 468 kts | 226° |
| 2026-04-24 09:56 | 44.51474 | 20.72322 | 32057 ft | 468 kts | 226° |
| 2026-04-24 09:57 | 44.46954 | 20.65858 | 32064 ft | 468 kts | 226° |
| 2026-04-24 09:57 | 44.42407 | 20.59357 | 32069 ft | 468 kts | 226° |
| 2026-04-24 09:58 | 44.37847 | 20.52861 | 32078 ft | 468 kts | 226° |
| 2026-04-24 09:58 | 44.33307 | 20.46411 | 32080 ft | 467 kts | 226° |
| 2026-04-24 09:59 | 44.28738 | 20.39951 | 32084 ft | 467 kts | 225° |
| 2026-04-24 09:59 | 44.24171 | 20.33508 | 32092 ft | 467 kts | 225° |
| 2026-04-24 10:00 | 44.19596 | 20.27055 | 32092 ft | 467 kts | 225° |
| 2026-04-24 10:00 | 44.15020 | 20.20618 | 32096 ft | 467 kts | 225° |
| 2026-04-24 10:01 | 44.10442 | 20.14190 | 32097 ft | 466 kts | 225° |
| 2026-04-24 10:01 | 44.05866 | 20.07776 | 32087 ft | 466 kts | 225° |
| 2026-04-24 10:02 | 44.01288 | 20.01388 | 32103 ft | 466 kts | 225° |
| 2026-04-24 10:02 | 43.96742 | 19.95052 | 32099 ft | 466 kts | 225° |
| 2026-04-24 10:03 | 43.92169 | 19.88694 | 32095 ft | 465 kts | 224° |
| 2026-04-24 10:03 | 43.87593 | 19.82345 | 32090 ft | 464 kts | 224° |
| 2026-04-24 10:04 | 43.83023 | 19.76018 | 32115 ft | 464 kts | 224° |
| 2026-04-24 10:04 | 43.78459 | 19.69712 | 32113 ft | 464 kts | 224° |
| 2026-04-24 10:05 | 43.73884 | 19.63408 | 32100 ft | 464 kts | 224° |
| 2026-04-24 10:05 | 43.69316 | 19.57121 | 32107 ft | 464 kts | 224° |
| 2026-04-24 10:06 | 43.62445 | 19.47712 | 32109 ft | 463 kts | 224° |
| 2026-04-24 10:07 | 43.57871 | 19.41461 | 32110 ft | 463 kts | 224° |
| 2026-04-24 10:07 | 43.53316 | 19.35249 | 32103 ft | 463 kts | 224° |
| 2026-04-24 10:08 | 43.48736 | 19.29019 | 32112 ft | 462 kts | 224° |
| 2026-04-24 10:08 | 43.44149 | 19.22791 | 32108 ft | 462 kts | 224° |
| 2026-04-24 10:09 | 43.39573 | 19.16590 | 32101 ft | 461 kts | 224° |
| 2026-04-24 10:09 | 43.34991 | 19.10397 | 32114 ft | 461 kts | 224° |
| 2026-04-24 10:10 | 43.30421 | 19.04232 | 32121 ft | 460 kts | 224° |
| 2026-04-24 10:10 | 43.25858 | 18.98091 | 32113 ft | 459 kts | 224° |
| 2026-04-24 10:11 | 43.21291 | 18.91960 | 32100 ft | 459 kts | 224° |
| 2026-04-24 10:11 | 43.16722 | 18.85856 | 32095 ft | 458 kts | 224° |
| 2026-04-24 10:12 | 43.12187 | 18.79788 | 32098 ft | 459 kts | 224° |
| 2026-04-24 10:12 | 43.07622 | 18.73697 | 32097 ft | 458 kts | 224° |
| 2026-04-24 10:13 | 43.03793 | 18.68605 | 32098 ft | 458 kts | 224° |
| 2026-04-24 10:13 | 42.99255 | 18.62586 | 32093 ft | 457 kts | 224° |
| 2026-04-24 10:14 | 42.94702 | 18.56546 | 32093 ft | 456 kts | 224° |
| 2026-04-24 10:14 | 42.90153 | 18.50530 | 32087 ft | 455 kts | 224° |
| 2026-04-24 10:15 | 42.85604 | 18.44529 | 32093 ft | 454 kts | 224° |
| 2026-04-24 10:15 | 42.81070 | 18.38558 | 32090 ft | 453 kts | 224° |
| 2026-04-24 10:16 | 42.76546 | 18.32610 | 32096 ft | 452 kts | 224° |
| 2026-04-24 10:16 | 42.72028 | 18.26676 | 32105 ft | 450 kts | 225° |
| 2026-04-24 10:17 | 42.67518 | 18.20775 | 32111 ft | 449 kts | 224° |
| 2026-04-24 10:17 | 42.63013 | 18.14904 | 32107 ft | 448 kts | 224° |
| 2026-04-24 10:18 | 42.58527 | 18.09053 | 32102 ft | 447 kts | 224° |
| 2026-04-24 10:18 | 42.54042 | 18.03221 | 32109 ft | 446 kts | 225° |
| 2026-04-24 10:19 | 42.49590 | 17.97448 | 32109 ft | 445 kts | 225° |
| 2026-04-24 10:19 | 42.45108 | 17.91654 | 32108 ft | 445 kts | 225° |
| 2026-04-24 10:20 | 42.40641 | 17.85875 | 32121 ft | 444 kts | 225° |
| 2026-04-24 10:20 | 42.36163 | 17.80102 | 32113 ft | 444 kts | 225° |
| 2026-04-24 10:21 | 42.31687 | 17.74346 | 32098 ft | 444 kts | 225° |
| 2026-04-24 10:21 | 42.27210 | 17.68594 | 32118 ft | 444 kts | 225° |
| 2026-04-24 10:22 | 42.22731 | 17.62849 | 32129 ft | 444 kts | 225° |
| 2026-04-24 10:22 | 42.18250 | 17.57110 | 32131 ft | 444 kts | 225° |
| 2026-04-24 10:23 | 42.13768 | 17.51389 | 32129 ft | 444 kts | 225° |
| 2026-04-24 10:23 | 42.09286 | 17.45675 | 32131 ft | 444 kts | 225° |
| 2026-04-24 10:24 | 42.04818 | 17.39996 | 32120 ft | 444 kts | 225° |
| 2026-04-24 10:24 | 42.00317 | 17.34291 | 32105 ft | 445 kts | 225° |
| 2026-04-24 10:25 | 41.95797 | 17.28579 | 32111 ft | 446 kts | 225° |
| 2026-04-24 10:25 | 41.91264 | 17.22887 | 32123 ft | 446 kts | 224° |
| 2026-04-24 10:26 | 41.86626 | 17.17330 | 32131 ft | 447 kts | 223° |
| 2026-04-24 10:26 | 41.81935 | 17.11842 | 32134 ft | 447 kts | 223° |
| 2026-04-24 10:27 | 41.77254 | 17.06342 | 32133 ft | 447 kts | 223° |
| 2026-04-24 10:27 | 41.72596 | 17.00826 | 32135 ft | 447 kts | 223° |
| 2026-04-24 10:28 | 41.67934 | 16.95316 | 32144 ft | 446 kts | 223° |
| 2026-04-24 10:28 | 41.63311 | 16.89863 | 32149 ft | 445 kts | 223° |
| 2026-04-24 10:29 | 41.58671 | 16.84395 | 32150 ft | 445 kts | 222° |
| 2026-04-24 10:29 | 41.54021 | 16.78938 | 32147 ft | 444 kts | 222° |
| 2026-04-24 10:30 | 41.49377 | 16.73500 | 32146 ft | 444 kts | 222° |
| 2026-04-24 10:30 | 41.44730 | 16.68065 | 32128 ft | 444 kts | 222° |
| 2026-04-24 10:31 | 41.40147 | 16.62712 | 32133 ft | 444 kts | 222° |
| 2026-04-24 10:31 | 41.35500 | 16.57309 | 32142 ft | 443 kts | 222° |
| 2026-04-24 10:32 | 41.30886 | 16.51952 | 31795 ft | 433 kts | 222° |
| 2026-04-24 10:32 | 41.28633 | 16.49337 | 31538 ft | 428 kts | 222° |
| 2026-04-24 10:32 | 41.26395 | 16.46739 | 31277 ft | 425 kts | 222° |
| 2026-04-24 10:32 | 41.24174 | 16.44162 | 31024 ft | 421 kts | 222° |
| 2026-04-24 10:33 | 41.21974 | 16.41615 | 30592 ft | 419 kts | 221° |
| 2026-04-24 10:33 | 41.19767 | 16.39062 | 30152 ft | 418 kts | 221° |
| 2026-04-24 10:33 | 41.17616 | 16.36576 | 29696 ft | 416 kts | 221° |
| 2026-04-24 10:33 | 41.15441 | 16.34067 | 29268 ft | 413 kts | 221° |
| 2026-04-24 10:34 | 41.13283 | 16.31580 | 28855 ft | 409 kts | 221° |
| 2026-04-24 10:34 | 41.11140 | 16.29112 | 28441 ft | 407 kts | 221° |
| 2026-04-24 10:34 | 41.09007 | 16.26663 | 28033 ft | 405 kts | 221° |
| 2026-04-24 10:34 | 41.06889 | 16.24230 | 27624 ft | 402 kts | 221° |
| 2026-04-24 10:35 | 41.04780 | 16.21809 | 27203 ft | 400 kts | 221° |
| 2026-04-24 10:35 | 41.02684 | 16.19404 | 26797 ft | 398 kts | 221° |
| 2026-04-24 10:35 | 41.00593 | 16.17006 | 26367 ft | 396 kts | 221° |
| 2026-04-24 10:35 | 40.98703 | 16.14449 | 25943 ft | 392 kts | 234° |
| 2026-04-24 10:36 | 40.97317 | 16.11375 | 25514 ft | 387 kts | 249° |
| 2026-04-24 10:36 | 40.96536 | 16.08001 | 25102 ft | 381 kts | 263° |
| 2026-04-24 10:36 | 40.96380 | 16.04535 | 24695 ft | 375 kts | 277° |
| 2026-04-24 10:36 | 40.96807 | 16.01161 | 24271 ft | 370 kts | 286° |
| 2026-04-24 10:37 | 40.97384 | 15.97851 | 23841 ft | 368 kts | 285° |
| 2026-04-24 10:37 | 40.97948 | 15.94553 | 23388 ft | 367 kts | 285° |
| 2026-04-24 10:37 | 40.98501 | 15.91270 | 22968 ft | 363 kts | 285° |
| 2026-04-24 10:37 | 40.99044 | 15.88026 | 22550 ft | 360 kts | 285° |
| 2026-04-24 10:38 | 40.99582 | 15.84802 | 22139 ft | 357 kts | 285° |
| 2026-04-24 10:38 | 41.00115 | 15.81601 | 21726 ft | 354 kts | 285° |
| 2026-04-24 10:38 | 41.00644 | 15.78434 | 21314 ft | 351 kts | 285° |
| 2026-04-24 10:38 | 41.01172 | 15.75286 | 20907 ft | 349 kts | 285° |
| 2026-04-24 10:39 | 41.01698 | 15.72154 | 20494 ft | 347 kts | 285° |
| 2026-04-24 10:39 | 41.02213 | 15.69085 | 20079 ft | 345 kts | 285° |
| 2026-04-24 10:39 | 41.02740 | 15.65946 | 19663 ft | 344 kts | 285° |
| 2026-04-24 10:39 | 41.03250 | 15.62901 | 19249 ft | 342 kts | 285° |
| 2026-04-24 10:40 | 41.03763 | 15.59827 | 18844 ft | 341 kts | 285° |
| 2026-04-24 10:40 | 41.04273 | 15.56759 | 18432 ft | 340 kts | 285° |
| 2026-04-24 10:40 | 41.04779 | 15.53706 | 17986 ft | 338 kts | 285° |
| 2026-04-24 10:40 | 41.05281 | 15.50667 | 17579 ft | 336 kts | 285° |
| 2026-04-24 10:41 | 41.05780 | 15.47656 | 17173 ft | 333 kts | 285° |
| 2026-04-24 10:41 | 41.06273 | 15.44662 | 16779 ft | 331 kts | 285° |
| 2026-04-24 10:41 | 41.06762 | 15.41682 | 16379 ft | 329 kts | 285° |
| 2026-04-24 10:41 | 41.07244 | 15.38759 | 15991 ft | 327 kts | 285° |
| 2026-04-24 10:42 | 41.07737 | 15.35782 | 15594 ft | 326 kts | 285° |
| 2026-04-24 10:42 | 41.08224 | 15.32840 | 15206 ft | 325 kts | 285° |
| 2026-04-24 10:42 | 41.08700 | 15.29954 | 14826 ft | 324 kts | 285° |
| 2026-04-24 10:42 | 41.09176 | 15.27043 | 14438 ft | 323 kts | 285° |
| 2026-04-24 10:43 | 41.09646 | 15.24138 | 14061 ft | 323 kts | 285° |
| 2026-04-24 10:43 | 41.10117 | 15.21229 | 13652 ft | 322 kts | 285° |
| 2026-04-24 10:43 | 41.10587 | 15.18335 | 13256 ft | 320 kts | 285° |
| 2026-04-24 10:43 | 41.10897 | 15.15413 | 12867 ft | 320 kts | 277° |
| 2026-04-24 10:44 | 41.11086 | 15.12481 | 12482 ft | 319 kts | 277° |
| 2026-04-24 10:44 | 41.11279 | 15.09548 | 12097 ft | 318 kts | 277° |
| 2026-04-24 10:44 | 41.11472 | 15.06631 | 11715 ft | 317 kts | 277° |
| 2026-04-24 10:44 | 41.11664 | 15.03723 | 11331 ft | 317 kts | 277° |
| 2026-04-24 10:45 | 41.11855 | 15.00810 | 10951 ft | 316 kts | 277° |
| 2026-04-24 10:45 | 41.12042 | 14.97909 | 10574 ft | 315 kts | 277° |
| 2026-04-24 10:45 | 41.12226 | 14.95008 | 10192 ft | 315 kts | 277° |
| 2026-04-24 10:45 | 41.12408 | 14.92138 | 9966 ft | 308 kts | 277° |
| 2026-04-24 10:46 | 41.12584 | 14.89342 | 9694 ft | 299 kts | 277° |
| 2026-04-24 10:46 | 41.12759 | 14.86614 | 9103 ft | 295 kts | 277° |
| 2026-04-24 10:46 | 41.12909 | 14.83929 | 8703 ft | 292 kts | 272° |
| 2026-04-24 10:46 | 41.12670 | 14.81249 | 8316 ft | 296 kts | 257° |
| 2026-04-24 10:47 | 41.11890 | 14.78735 | 7818 ft | 293 kts | 240° |
| 2026-04-24 10:47 | 41.10804 | 14.76459 | 7502 ft | 291 kts | 239° |
| 2026-04-24 10:47 | 41.09749 | 14.74231 | 7421 ft | 280 kts | 239° |
| 2026-04-24 10:47 | 41.08735 | 14.72070 | 7302 ft | 273 kts | 240° |
| 2026-04-24 10:48 | 41.07748 | 14.69957 | 7189 ft | 265 kts | 240° |
| 2026-04-24 10:48 | 41.06805 | 14.67936 | 7068 ft | 258 kts | 240° |
| 2026-04-24 10:48 | 41.05875 | 14.65946 | 6954 ft | 249 kts | 240° |
| 2026-04-24 10:48 | 41.04956 | 14.63973 | 6542 ft | 254 kts | 240° |
| 2026-04-24 10:49 | 41.04026 | 14.61971 | 6154 ft | 256 kts | 239° |
| 2026-04-24 10:49 | 41.03087 | 14.59951 | 5779 ft | 259 kts | 239° |
| 2026-04-24 10:49 | 41.02132 | 14.57902 | 5412 ft | 264 kts | 239° |
| 2026-04-24 10:49 | 41.01159 | 14.55818 | 5030 ft | 268 kts | 239° |
| 2026-04-24 10:50 | 41.00174 | 14.53718 | 4634 ft | 269 kts | 239° |
| 2026-04-24 10:50 | 40.99183 | 14.51610 | 4328 ft | 271 kts | 239° |
| 2026-04-24 10:50 | 40.98201 | 14.49515 | 3934 ft | 264 kts | 239° |
| 2026-04-24 10:50 | 40.97250 | 14.47485 | 3565 ft | 255 kts | 239° |
| 2026-04-24 10:51 | 40.96328 | 14.45519 | 3198 ft | 247 kts | 239° |
| 2026-04-24 10:51 | 40.95435 | 14.43613 | 2830 ft | 240 kts | 240° |
| 2026-04-24 10:51 | 40.94583 | 14.41800 | 2478 ft | 223 kts | 239° |
| 2026-04-24 10:51 | 40.93793 | 14.40117 | 2161 ft | 208 kts | 239° |
| 2026-04-24 10:52 | 40.93071 | 14.38579 | 1881 ft | 188 kts | 240° |
| 2026-04-24 10:52 | 40.92413 | 14.37181 | 1620 ft | 167 kts | 240° |
| 2026-04-24 10:52 | 40.91829 | 14.35938 | 1362 ft | 154 kts | 240° |
| 2026-04-24 10:52 | 40.91284 | 14.34778 | 1134 ft | 145 kts | 240° |
| 2026-04-24 10:53 | 40.90756 | 14.33652 | 928 ft | 143 kts | 240° |
| 2026-04-24 10:53 | 40.90235 | 14.32537 | 712 ft | 142 kts | 240° |
| 2026-04-24 10:53 | 40.89726 | 14.31451 | 499 ft | 142 kts | 239° |
| 2026-04-24 10:53 | 40.89202 | 14.30365 | 320 ft | 140 kts | 243° |
| 2026-04-24 10:54 | 40.88719 | 14.29319 | 262 ft | 115 kts | 240° |
| 2026-04-24 10:54 | 40.88392 | 14.28629 | 280 ft | 65 kts | 238° |
| 2026-04-24 10:54 | 40.88238 | 14.28302 | 285 ft | 33 kts | 239° |
| 2026-04-24 10:54 | 40.88156 | 14.28129 | 294 ft | 12 kts | 236° |
| 2026-04-24 10:55 | 40.88123 | 14.28064 | 294 ft | 13 kts | 234° |
| 2026-04-24 10:55 | 40.88065 | 14.28047 | 295 ft | 9 kts | 155° |
| 2026-04-24 10:55 | 40.87990 | 14.28112 | 292 ft | 9 kts | 147° |
| 2026-04-24 10:55 | 40.87947 | 14.28145 | 293 ft | 5 kts | 163° |
| 2026-04-24 10:56 | 40.87906 | 14.28161 | 298 ft | 7 kts | 164° |
| 2026-04-24 10:56 | 40.87887 | 14.28168 | 295 ft | 0 kts | 163° |